weather.gov     
National Weather Service

Terminal Aerodrome Forecast
NWS Homepage
This page is being discontinued on March 12, 2014.
The same data is available at this site. Please update your bookmarks.
Thank you, and we apologize for the inconvenience.
Please send an email to SR-SRH.Webmaster@noaa.gov with any concerns.


Current Version
Previous Version:    01  02  03  04  05  06  07  08  09  10  11  12  13  14  15  16  17  18  19  20  21  22  23  24  25  26  27  28  29  30  
   31  32  33  34  35  
[Printable]
591
FTUS43 KOAX 172320
TAFOMA
TAF
KOMA 172320Z 1800/1824 01005KT P6SM OVC060
     FM180600 11003KT P6SM SCT015 OVC040
      TEMPO 1807/1811 4SM -SN OVC015
     FM181100 11005KT 4SM -SN BR OVC015
      TEMPO 1811/1815 1 1/2SM -SN BR OVC009
     FM181500 12005KT 4SM BR OVC009=




591
FTUS43 KOAX 172320
TAFOMA
TAF
KOMA 172320Z 1800/1824 01005KT P6SM OVC060
     FM180600 11003KT P6SM SCT015 OVC040
      TEMPO 1807/1811 4SM -SN OVC015
     FM181100 11005KT 4SM -SN BR OVC015
      TEMPO 1811/1815 1 1/2SM -SN BR OVC009
     FM181500 12005KT 4SM BR OVC009=


U.S. Dept. of Commerce
NOAA National Weather Service
1325 East West Highway
Silver Spring, MD 20910
E-mail: w-nws.webmaster@noaa.gov
Page last modified: May 16, 2007
NATIONAL WEATHER SERVICE: for Safety, for Work, for Fun - FOR LIFE